Share

Benkelman, NE

KHMYKSBI2 Elev 3507 ft | 39.76 °N, 101.60 °W | Change Station

Current weather conditions updated 10 seconds ago

Clear
Clear
63.7 °F
Feels Like 63.7 °F
N
18.0
Wind Variable Wind from SSE
Gusts 23.0 mph
Sunrise 6:03 AM
Sunset 7:27 PM
Moon Waning Gibbous

Today is forecast to be Much Warmer than yesterday.

Pressure 30.00 in
Visibility 10.0 miles
Clouds Clear
Dew Point 42 °F
Humidity 46%
Rainfall 0.00 in
Snow Depth Not available.
UV 7.0 out of 16
Pollen 11.40 out of 12
Air Quality Not available.
Flu Activity Sporadic
METAR KSYF 181715Z AUTO 18014G18KT 10SM CLR 17/02 A3000 RMK AO2 T01700022

More Conditions Fewer Conditions

Pressure 30.00 in
Visibility 10.0 miles
Clouds Clear
Dew Point 42 °F
Humidity 46%
Rainfall 0.00 in
Snow Depth Not available.
UV 7.0 out of 16
Pollen 11.40 out of 12
Air Quality Not available.
Flu Activity Sporadic
METAR KSYF 181715Z AUTO 18014G18KT 10SM CLR 17/02 A3000 RMK AO2 T01700022

More Conditions Fewer Conditions

10-Day Weather Forecast

Almanac

Astronomy

Apr. 18, 2014 Rise Set
Actual Time 6:03 AM MDT 7:27 PM MDT
Civil Twilight 5:35 AM MDT 7:56 PM MDT
Nautical Twilight 5:01 AM MDT 8:30 PM MDT
Astronomical Twilight 4:25 AM MDT 9:06 PM MDT
Moon 11:14 PM MDT 8:27 AM MDT
Length of Visible Light 14h 20m
Length of Day
13h 24m
Tomorrow will be 2m 28s longer.
Waning Gibbous, 87% of the Moon is Illuminated
Today
Waning Gibbous
Apr 22
Last Quarter
Apr 29
New
May 6
First Quarter
May 14
Full

Today's Extremes

State Highs State Lows

Community

  • What's for Lunch?
    What's for Lunch?
  • SUNRISE THROUGH THE TREES.
    SUNRISE THROUGH THE TREES.
  • Dog Wood Blossoms
    Dog Wood Blossoms
  • Morning Light
    Morning Light
  • New Day
    New Day

WunderPhotos

Upload Photos

1,702,430 photos uploaded!

Nearby

Snow Depth

Station Depth Elevation
No new snow has been reported.

Coastal Water Temperatures

Place Temperature
No Stations Reporting

Earthquake Activity

City Distance Mag. Time & Date
No recent earthquake activity has been reported nearby.
Minimum magnitude displayed is 2.5.

Nearby Weather Stations

Station Location Temp. Dew Point Humidity Wind Precip. Elev Updated Type
Bird City, KS 63.7 °F 42 °F 46% SSE  at  18.0 mph 0.00 in / hr 3507 ft 12:36 PM CDT Rapid Fire
South Center on Hwy 36, St Francis, KS 68.5 °F 43 °F 40% SSE  at  3.0 mph 0.00 in / hr 3330 ft 12:35 PM CDT Normal

Show More Stations Show Fewer Stations

What do you think?

We're not finished. Please let us know what you like, what you don't like, and what you are still missing.